createdAt,value
2023-05-09T00:02:13.415Z,101790.22
2023-05-09T00:04:40.196Z,101787.09
2023-05-09T00:07:07.338Z,101788.41
2023-05-09T00:09:33.815Z,101779.16
2023-05-09T00:12:00.380Z,101782.25
2023-05-09T00:14:27.386Z,101786.97
2023-05-09T00:16:53.874Z,101791.50
2023-05-09T00:19:21.359Z,101790.03
2023-05-09T00:21:47.865Z,101793.13
2023-05-09T00:24:14.342Z,101790.31
2023-05-09T00:26:41.026Z,101783.00
2023-05-09T00:29:07.457Z,101786.50
2023-05-09T00:31:34.027Z,101787.25
2023-05-09T00:34:00.633Z,101785.84
2023-05-09T00:36:27.346Z,101793.75
2023-05-09T00:38:53.796Z,101790.16
2023-05-09T00:41:21.461Z,101789.16
2023-05-09T00:43:48.013Z,101782.25
2023-05-09T00:46:14.626Z,101788.13
2023-05-09T00:48:41.258Z,101791.00
2023-05-09T00:51:07.784Z,101783.63
2023-05-09T00:53:34.402Z,101788.47
2023-05-09T00:56:01.124Z,101779.06
2023-05-09T00:58:28.226Z,101779.38
2023-05-09T01:00:54.690Z,101774.13
2023-05-09T01:03:21.383Z,101772.88
2023-05-09T01:09:48.192Z,101764.31
2023-05-09T01:12:43.930Z,101763.06
2023-05-09T01:15:59.826Z,101762.25
2023-05-09T01:18:37.297Z,101762.00
2023-05-09T01:21:11.671Z,101753.97
2023-05-09T01:23:57.626Z,101759.16
2023-05-09T01:26:36.301Z,101760.31
2023-05-09T01:29:39.694Z,101756.00
2023-05-09T01:32:27.293Z,101757.56
2023-05-09T01:34:55.986Z,101750.22
2023-05-09T01:37:29.379Z,101745.56
2023-05-09T01:40:00.425Z,101755.41
2023-05-09T01:42:31.124Z,101744.09
2023-05-09T01:44:59.417Z,101749.34
2023-05-09T01:47:27.021Z,101744.13
2023-05-09T01:49:56.157Z,101748.16
2023-05-09T01:52:23.233Z,101748.94
2023-05-09T01:54:51.494Z,101751.41
2023-05-09T01:57:19.254Z,101747.38
2023-05-09T01:59:46.545Z,101756.13
2023-05-09T02:02:13.502Z,101752.09
2023-05-09T02:04:43.432Z,101746.91
2023-05-09T02:07:11.620Z,101746.22
2023-05-09T02:09:38.384Z,101749.00
2023-05-09T02:12:05.149Z,101741.84
2023-05-09T02:14:31.707Z,101740.03
2023-05-09T02:17:00.333Z,101744.31
2023-05-09T02:19:26.846Z,101746.41
2023-05-09T02:21:53.314Z,101745.47
2023-05-09T02:24:20.010Z,101746.91
2023-05-09T02:26:46.739Z,101741.81
2023-05-09T02:29:13.543Z,101750.34
2023-05-09T02:31:42.174Z,101741.25
2023-05-09T02:34:09.773Z,101756.81
2023-05-09T02:36:36.576Z,101751.09
2023-05-09T02:39:03.228Z,101755.41
2023-05-09T02:41:30.192Z,101759.31
2023-05-09T02:43:56.837Z,101749.63
2023-05-09T02:46:23.404Z,101753.63
2023-05-09T02:48:49.926Z,101739.22
2023-05-09T02:51:16.372Z,101743.53
2023-05-09T02:53:43.177Z,101745.53
2023-05-09T02:56:10.867Z,101739.81
2023-05-09T02:58:37.302Z,101745.22
2023-05-09T03:01:04.067Z,101742.22
2023-05-09T03:03:34.040Z,101742.69
2023-05-09T03:06:01.524Z,101736.53
2023-05-09T03:08:28.084Z,101737.00
2023-05-09T03:10:54.669Z,101735.44
2023-05-09T03:13:21.407Z,101735.63
2023-05-09T03:15:48.062Z,101731.84
2023-05-09T03:18:14.516Z,101727.81
2023-05-09T03:20:40.951Z,101729.81
2023-05-09T03:23:07.474Z,101729.22
2023-05-09T03:25:33.896Z,101727.84
2023-05-09T03:28:00.486Z,101728.16
2023-05-09T03:30:27.266Z,101730.16
2023-05-09T03:32:53.774Z,101728.25
2023-05-09T03:35:20.335Z,101732.81
2023-05-09T03:37:46.758Z,101733.41
2023-05-09T03:40:13.243Z,101724.84
2023-05-09T03:42:39.688Z,101727.16
2023-05-09T03:45:06.696Z,101730.50
2023-05-09T03:47:33.229Z,101727.13
2023-05-09T03:49:59.678Z,101727.25
2023-05-09T03:52:26.127Z,101728.75
2023-05-09T03:54:52.618Z,101718.09
2023-05-09T03:57:19.281Z,101723.09
2023-05-09T03:59:45.741Z,101713.75
2023-05-09T04:02:12.292Z,101720.22
2023-05-09T04:04:38.884Z,101716.19
2023-05-09T04:07:05.382Z,101711.22
2023-05-09T04:09:31.917Z,101717.28
2023-05-09T04:11:58.482Z,101721.66
2023-05-09T04:14:24.955Z,101712.66
2023-05-09T04:16:51.749Z,101720.09
2023-05-09T04:19:18.309Z,101723.34
2023-05-09T04:21:44.826Z,101727.38
2023-05-09T04:24:11.597Z,101719.00
2023-05-09T04:26:38.945Z,101726.06
2023-05-09T04:29:05.480Z,101723.84
2023-05-09T04:31:32.047Z,101720.91
2023-05-09T04:33:58.691Z,101722.59
2023-05-09T04:36:25.155Z,101712.94
2023-05-09T04:38:51.590Z,101710.78
2023-05-09T04:41:18.253Z,101710.25
2023-05-09T04:43:44.739Z,101717.84
2023-05-09T04:46:11.395Z,101716.19
2023-05-09T04:48:37.884Z,101723.34
2023-05-09T04:51:04.364Z,101718.34
2023-05-09T04:53:30.804Z,101718.34
2023-05-09T04:55:57.314Z,101719.28
2023-05-09T04:58:25.379Z,101716.50
2023-05-09T05:00:52.727Z,101708.28
2023-05-09T05:03:19.300Z,101702.81
2023-05-09T05:05:45.842Z,101711.66
2023-05-09T05:08:12.342Z,101707.03
2023-05-09T05:10:38.918Z,101712.13
2023-05-09T05:13:05.430Z,101707.44
2023-05-09T05:15:32.196Z,101707.00
2023-05-09T05:17:58.637Z,101706.34
2023-05-09T05:20:25.126Z,101706.25
2023-05-09T05:22:51.744Z,101694.41
2023-05-09T05:25:18.565Z,101700.56
2023-05-09T05:27:44.978Z,101703.03
2023-05-09T05:30:12.124Z,101699.41
2023-05-09T05:32:38.580Z,101699.34
2023-05-09T05:35:05.515Z,101699.59
2023-05-09T05:37:32.096Z,101699.47
2023-05-09T05:39:58.645Z,101690.09
2023-05-09T05:42:25.129Z,101692.03
2023-05-09T05:44:51.567Z,101693.56
2023-05-09T05:47:17.980Z,101695.41
2023-05-09T05:49:45.142Z,101678.25
2023-05-09T05:52:11.586Z,101683.09
2023-05-09T05:54:37.994Z,101667.47
2023-05-09T05:57:04.474Z,101670.53
2023-05-09T05:59:30.889Z,101663.22
2023-05-09T06:01:57.436Z,101668.16
2023-05-09T06:04:23.916Z,101655.31
2023-05-09T06:06:51.542Z,101655.69
2023-05-09T06:09:18.036Z,101661.97
2023-05-09T06:11:44.547Z,101658.91
2023-05-09T06:14:11.236Z,101654.97
2023-05-09T06:16:37.721Z,101651.88
2023-05-09T06:19:04.253Z,101643.41
2023-05-09T06:21:31.116Z,101644.44
2023-05-09T06:24:09.918Z,101635.16
2023-05-09T06:26:39.076Z,101644.34
2023-05-09T06:29:08.663Z,101633.25
2023-05-09T06:31:39.306Z,101636.56
2023-05-09T06:34:06.095Z,101628.56
2023-05-09T06:36:33.406Z,101631.78
2023-05-09T06:39:00.132Z,101626.66
2023-05-09T06:41:27.196Z,101635.00
2023-05-09T06:43:53.809Z,101614.50
2023-05-09T06:46:20.292Z,101613.75
2023-05-09T06:48:46.800Z,101612.53
2023-05-09T06:51:13.389Z,101606.97
2023-05-09T06:53:39.924Z,101618.81
2023-05-09T06:56:06.490Z,101609.53
2023-05-09T06:58:32.992Z,101604.63
2023-05-09T07:00:59.560Z,101607.19
2023-05-09T07:03:26.169Z,101591.31
2023-05-09T07:05:52.753Z,101586.94
2023-05-09T07:08:19.211Z,101584.34
2023-05-09T07:10:45.696Z,101578.34
2023-05-09T07:13:12.291Z,101575.25
2023-05-09T07:15:42.502Z,101562.59
2023-05-09T07:18:09.654Z,101563.47
2023-05-09T07:20:36.405Z,101551.72
2023-05-09T07:23:03.997Z,101560.75
2023-05-09T07:25:30.720Z,101548.72
2023-05-09T07:27:57.618Z,101544.03
2023-05-09T07:30:24.146Z,101544.78
2023-05-09T07:32:51.803Z,101549.31
2023-05-09T07:35:19.765Z,101542.38
2023-05-09T07:37:46.468Z,101542.16
2023-05-09T07:40:13.627Z,101542.94
2023-05-09T07:42:40.636Z,101551.84
2023-05-09T07:45:07.611Z,101536.75
2023-05-09T07:47:34.086Z,101537.38
2023-05-09T07:50:00.700Z,101527.56
2023-05-09T07:52:27.129Z,101526.94
2023-05-09T07:54:54.536Z,101518.13
2023-05-09T07:57:21.029Z,101515.63
2023-05-09T07:59:47.521Z,101510.09
2023-05-09T08:02:14.049Z,101516.16
2023-05-09T08:04:41.460Z,101503.28
2023-05-09T08:07:09.084Z,101507.34
2023-05-09T08:09:35.752Z,101506.63
2023-05-09T08:12:02.432Z,101509.00
2023-05-09T08:14:29.066Z,101504.97
2023-05-09T08:16:55.543Z,101497.31
2023-05-09T08:19:23.626Z,101502.19
2023-05-09T08:21:50.135Z,101502.75
2023-05-09T08:24:16.665Z,101495.47
2023-05-09T08:26:44.154Z,101491.91
2023-05-09T08:29:10.841Z,101501.44
2023-05-09T08:31:37.381Z,101494.22
2023-05-09T08:34:03.914Z,101491.16
2023-05-09T08:36:30.587Z,101484.66
2023-05-09T08:38:57.271Z,101481.66
2023-05-09T08:41:30.894Z,101480.50
2023-05-09T08:43:57.484Z,101483.97
2023-05-09T08:46:33.890Z,101487.78
2023-05-09T08:49:01.050Z,101475.63
2023-05-09T08:51:30.105Z,101468.06
2023-05-09T08:53:56.670Z,101465.94
2023-05-09T08:56:23.495Z,101464.81
2023-05-09T08:58:50.216Z,101470.13
2023-05-09T09:01:17.620Z,101458.84
2023-05-09T09:03:47.727Z,101459.09
2023-05-09T09:06:14.507Z,101453.50
2023-05-09T09:08:41.747Z,101443.00
2023-05-09T09:11:11.946Z,101446.44
2023-05-09T09:13:41.057Z,101444.56
2023-05-09T09:16:11.207Z,101444.50
2023-05-09T09:18:39.817Z,101443.06
2023-05-09T09:21:09.646Z,101439.00
2023-05-09T09:23:38.969Z,101431.13
2023-05-09T09:26:05.644Z,101429.34
2023-05-09T09:28:32.832Z,101423.47
2023-05-09T09:30:59.274Z,101447.84
2023-05-09T09:33:28.750Z,101437.56
2023-05-09T09:35:56.549Z,101426.53
2023-05-09T09:38:24.654Z,101416.59
2023-05-09T09:40:58.584Z,101421.31
2023-05-09T09:43:31.888Z,101409.44
2023-05-09T09:46:05.169Z,101405.53
2023-05-09T09:48:38.085Z,101423.22
2023-05-09T09:51:13.599Z,101396.06
2023-05-09T09:53:43.718Z,101396.47
2023-05-09T09:56:11.037Z,101400.69
2023-05-09T09:58:37.560Z,101396.19
2023-05-09T10:01:09.005Z,101394.00
2023-05-09T10:03:39.215Z,101392.84
2023-05-09T10:06:09.830Z,101385.59
2023-05-09T10:08:36.377Z,101399.41
2023-05-09T10:11:03.051Z,101392.78
2023-05-09T10:13:29.866Z,101387.28
2023-05-09T10:15:58.391Z,101368.41
2023-05-09T10:18:28.787Z,101360.81
2023-05-09T10:20:56.680Z,101358.59
2023-05-09T10:23:24.827Z,101357.56
2023-05-09T10:26:03.218Z,101357.78
2023-05-09T10:28:33.157Z,101354.34
2023-05-09T10:31:26.006Z,101352.97
2023-05-09T10:33:53.666Z,101348.72
2023-05-09T10:36:22.122Z,101344.28
2023-05-09T10:38:49.393Z,101331.19
2023-05-09T10:41:17.205Z,101344.03
2023-05-09T10:43:45.189Z,101339.41
2023-05-09T10:46:13.099Z,101340.22
2023-05-09T10:48:41.128Z,101345.63
2023-05-09T10:51:08.659Z,101337.56
2023-05-09T10:53:45.626Z,101325.22
2023-05-09T10:56:33.932Z,101326.75
2023-05-09T10:59:00.578Z,101322.50
2023-05-09T11:01:37.263Z,101318.63
2023-05-09T11:04:16.583Z,101310.19
2023-05-09T11:06:51.942Z,101317.81
2023-05-09T11:09:37.820Z,101297.75
2023-05-09T11:12:05.175Z,101304.88
2023-05-09T11:14:35.685Z,101301.78
2023-05-09T11:17:04.296Z,101292.25
2023-05-09T11:19:43.003Z,101283.69
2023-05-09T11:22:21.552Z,101263.09
2023-05-09T11:24:52.423Z,101283.47
2023-05-09T11:27:19.667Z,101286.53
2023-05-09T11:29:54.965Z,101276.00
2023-05-09T11:32:27.246Z,101265.75
2023-05-09T11:35:10.105Z,101247.00
2023-05-09T11:37:46.580Z,101249.44
2023-05-09T11:40:14.780Z,101250.78
2023-05-09T11:42:47.051Z,101253.38
2023-05-09T11:45:14.766Z,101259.09
2023-05-09T11:47:41.681Z,101243.75
2023-05-09T11:50:09.946Z,101234.50
2023-05-09T11:52:38.201Z,101235.44
2023-05-09T11:55:13.756Z,101232.28
2023-05-09T11:57:49.135Z,101227.25
2023-05-09T12:00:20.752Z,101207.16
2023-05-09T12:02:47.654Z,101207.59
2023-05-09T12:05:16.993Z,101206.25
2023-05-09T12:07:44.646Z,101212.66
2023-05-09T12:10:13.717Z,101199.13
2023-05-09T12:12:45.275Z,101179.69
2023-05-09T12:15:13.457Z,101182.72
2023-05-09T12:17:41.562Z,101188.09
2023-05-09T12:20:09.039Z,101172.53
2023-05-09T12:22:37.457Z,101174.38
2023-05-09T12:25:09.560Z,101169.88
2023-05-09T12:27:38.568Z,101171.75
2023-05-09T12:30:16.203Z,101170.97
2023-05-09T12:32:43.574Z,101159.72
2023-05-09T12:35:11.237Z,101161.03
2023-05-09T12:37:38.454Z,101162.72
2023-05-09T12:40:09.802Z,101154.06
2023-05-09T12:42:36.282Z,101152.50
2023-05-09T12:45:03.812Z,101153.69
2023-05-09T12:47:31.754Z,101155.38
2023-05-09T12:50:01.783Z,101154.53
2023-05-09T12:52:41.628Z,101158.56
2023-05-09T12:55:14.137Z,101151.75
2023-05-09T12:57:42.071Z,101141.88
2023-05-09T13:00:10.309Z,101137.31
2023-05-09T13:02:39.874Z,101133.50
2023-05-09T13:05:12.073Z,101114.50
2023-05-09T13:07:46.348Z,101120.31
2023-05-09T13:10:19.280Z,101115.88
2023-05-09T13:12:48.397Z,101118.94
2023-05-09T13:15:16.959Z,101108.50
2023-05-09T13:17:43.752Z,101111.38
2023-05-09T13:20:10.726Z,101104.72
2023-05-09T13:22:37.513Z,101105.72
2023-05-09T13:25:04.437Z,101094.78
2023-05-09T13:27:31.337Z,101089.84
2023-05-09T13:29:57.841Z,101093.22
2023-05-09T13:32:25.007Z,101097.50
2023-05-09T13:34:52.397Z,101080.44
2023-05-09T13:37:18.913Z,101083.44
2023-05-09T13:39:45.517Z,101069.81
2023-05-09T13:42:12.110Z,101060.63
2023-05-09T13:44:38.575Z,101070.63
2023-05-09T13:47:07.667Z,101067.94
2023-05-09T13:49:34.926Z,101054.06
2023-05-09T13:52:01.540Z,101044.69
2023-05-09T13:54:29.780Z,101023.41
2023-05-09T13:56:56.303Z,101028.06
2023-05-09T13:59:22.829Z,101020.84
2023-05-09T14:01:49.482Z,101010.59
2023-05-09T14:04:16.016Z,101015.28
2023-05-09T14:06:48.064Z,101013.31
2023-05-09T14:09:15.667Z,101005.28
2023-05-09T14:11:43.086Z,101003.28
2023-05-09T14:14:09.574Z,100995.50
2023-05-09T14:16:36.126Z,100997.13
2023-05-09T14:19:02.717Z,100990.66
2023-05-09T14:21:29.234Z,100994.00
2023-05-09T14:23:55.826Z,100985.09
2023-05-09T14:26:22.341Z,100994.00
2023-05-09T14:28:48.765Z,100991.34
2023-05-09T14:31:15.678Z,100988.53
2023-05-09T14:33:42.119Z,100988.47
2023-05-09T14:36:08.647Z,100969.00
2023-05-09T14:38:35.598Z,100971.16
2023-05-09T14:41:02.351Z,100961.34
2023-05-09T14:43:28.808Z,100960.59
2023-05-09T14:45:55.730Z,100962.00
2023-05-09T14:48:22.268Z,100950.31
2023-05-09T14:50:49.896Z,100954.38
2023-05-09T14:53:16.433Z,100961.94
2023-05-09T14:55:42.914Z,100946.72
2023-05-09T14:58:09.497Z,100951.50
2023-05-09T15:00:35.952Z,100949.06
2023-05-09T15:03:03.099Z,100942.75
2023-05-09T15:05:30.135Z,100939.06
2023-05-09T15:07:56.585Z,100933.84
2023-05-09T15:10:23.146Z,100937.13
2023-05-09T15:12:49.687Z,100925.28
2023-05-09T15:15:18.172Z,100937.56
2023-05-09T15:17:45.484Z,100923.69
2023-05-09T15:20:14.333Z,100928.16
2023-05-09T15:22:41.989Z,100918.72
2023-05-09T15:25:08.891Z,100909.59
2023-05-09T15:27:35.375Z,100913.97
2023-05-09T15:30:02.306Z,100911.47
2023-05-09T15:32:28.871Z,100906.78
2023-05-09T15:34:55.378Z,100908.75
2023-05-09T15:37:21.871Z,100912.81
2023-05-09T15:39:48.359Z,100904.78
2023-05-09T15:42:16.138Z,100897.22
2023-05-09T15:44:43.096Z,100889.09
2023-05-09T15:47:10.077Z,100906.16
2023-05-09T15:49:36.772Z,100890.41
2023-05-09T15:52:04.352Z,100901.16
2023-05-09T15:54:31.783Z,100889.63
2023-05-09T15:56:59.244Z,100884.53
2023-05-09T15:59:26.414Z,100890.06
2023-05-09T16:01:53.498Z,100885.75
2023-05-09T16:04:20.186Z,100887.34
2023-05-09T16:06:47.347Z,100889.13
2023-05-09T16:09:13.806Z,100887.13
2023-05-09T16:11:43.497Z,100879.25
2023-05-09T16:14:12.089Z,100879.03
2023-05-09T16:16:40.002Z,100881.44
2023-05-09T16:19:06.850Z,100872.81
2023-05-09T16:21:33.459Z,100869.38
2023-05-09T16:24:02.910Z,100854.13
2023-05-09T16:26:29.492Z,100865.56
2023-05-09T16:28:56.248Z,100854.16
2023-05-09T16:31:26.364Z,100853.06
2023-05-09T16:33:54.094Z,100854.50
2023-05-09T16:36:21.301Z,100849.25
2023-05-09T16:38:47.846Z,100831.72
2023-05-09T16:41:14.490Z,100844.88
2023-05-09T16:43:41.470Z,100848.91
2023-05-09T16:46:08.188Z,100848.13
2023-05-09T16:48:34.709Z,100845.06
2023-05-09T16:53:42.417Z,100845.56
2023-05-09T16:56:10.933Z,100845.00
2023-05-09T16:58:37.627Z,100826.78
2023-05-09T17:01:04.156Z,100844.44
2023-05-09T17:03:30.790Z,100841.06
2023-05-09T17:05:57.300Z,100834.75
2023-05-09T17:08:23.760Z,100825.72
2023-05-09T17:10:50.400Z,100824.47
2023-05-09T17:13:16.900Z,100825.31
2023-05-09T17:15:43.476Z,100824.00
2023-05-09T17:18:10.142Z,100825.03
2023-05-09T17:20:36.938Z,100820.97
2023-05-09T17:23:03.388Z,100826.28
2023-05-09T17:25:29.872Z,100815.47
2023-05-09T17:27:56.481Z,100817.47
2023-05-09T17:30:23.413Z,100813.25
2023-05-09T17:32:50.232Z,100815.38
2023-05-09T17:35:19.377Z,100819.63
2023-05-09T17:37:46.208Z,100815.50
2023-05-09T17:40:12.978Z,100811.59
2023-05-09T17:42:39.988Z,100809.72
2023-05-09T17:45:07.309Z,100809.06
2023-05-09T17:47:33.822Z,100814.50
2023-05-09T17:50:00.888Z,100810.81
2023-05-09T17:52:27.324Z,100804.59
2023-05-09T17:54:53.953Z,100799.91
2023-05-09T17:57:20.406Z,100801.97
2023-05-09T17:59:47.965Z,100798.00
2023-05-09T18:02:14.652Z,100798.97
2023-05-09T18:04:41.289Z,100799.16
2023-05-09T18:07:08.441Z,100800.53
2023-05-09T18:09:34.949Z,100798.41
2023-05-09T18:12:01.448Z,100794.16
2023-05-09T18:14:28.470Z,100791.25
2023-05-09T18:16:55.024Z,100786.88
2023-05-09T18:19:21.459Z,100786.47
2023-05-09T18:21:48.214Z,100786.09
2023-05-09T18:24:16.923Z,100789.66
2023-05-09T18:26:43.726Z,100792.94
2023-05-09T18:29:10.255Z,100785.34
2023-05-09T18:31:38.805Z,100788.06
2023-05-09T18:34:05.933Z,100783.75
2023-05-09T18:36:32.538Z,100786.59
2023-05-09T18:38:59.450Z,100792.41
2023-05-09T18:41:26.649Z,100791.44
2023-05-09T18:43:53.224Z,100787.50
2023-05-09T18:46:22.633Z,100795.09
2023-05-09T18:48:51.638Z,100786.75
2023-05-09T18:51:21.483Z,100790.59
2023-05-09T18:53:48.427Z,100792.50
2023-05-09T18:56:16.110Z,100784.91
2023-05-09T18:58:42.533Z,100786.00
2023-05-09T19:01:11.519Z,100783.47
2023-05-09T19:03:46.004Z,100785.47
2023-05-09T19:06:16.428Z,100786.03
2023-05-09T19:08:43.632Z,100787.22
2023-05-09T19:11:11.646Z,100789.69
2023-05-09T19:13:40.692Z,100788.91
2023-05-09T19:16:08.093Z,100790.31
2023-05-09T19:18:34.734Z,100792.22
2023-05-09T19:21:01.597Z,100791.41
2023-05-09T19:23:28.096Z,100791.84
2023-05-09T19:25:54.978Z,100782.59
2023-05-09T19:28:22.872Z,100779.41
2023-05-09T19:30:50.274Z,100773.63
2023-05-09T19:33:17.052Z,100773.81
2023-05-09T19:35:44.791Z,100772.88
2023-05-09T19:38:12.077Z,100771.38
2023-05-09T19:40:39.587Z,100771.72
2023-05-09T19:43:06.050Z,100766.34
2023-05-09T19:45:32.540Z,100767.53
2023-05-09T19:47:59.180Z,100766.56
2023-05-09T19:50:25.798Z,100770.16
2023-05-09T19:52:52.336Z,100759.50
2023-05-09T19:55:18.808Z,100773.31
2023-05-09T19:57:45.250Z,100765.31
2023-05-09T20:00:12.635Z,100774.06
2023-05-09T20:02:39.285Z,100771.06
2023-05-09T20:05:06.325Z,100772.53
2023-05-09T20:07:32.837Z,100766.66
2023-05-09T20:09:59.275Z,100755.75
2023-05-09T20:12:27.319Z,100753.25
2023-05-09T20:14:55.100Z,100755.97
2023-05-09T20:17:21.809Z,100758.34
2023-05-09T20:19:48.269Z,100754.06
2023-05-09T20:22:14.716Z,100750.75
2023-05-09T20:24:41.478Z,100739.41
2023-05-09T20:27:07.956Z,100744.78
2023-05-09T20:29:34.437Z,100748.72
2023-05-09T20:32:01.225Z,100737.78
2023-05-09T20:34:27.678Z,100737.81
2023-05-09T20:36:54.974Z,100732.94
2023-05-09T20:39:21.529Z,100730.59
2023-05-09T20:41:49.083Z,100731.84
2023-05-09T20:44:17.595Z,100725.56
2023-05-09T20:46:45.063Z,100729.03
2023-05-09T20:49:11.601Z,100728.94
2023-05-09T20:51:38.291Z,100727.88
2023-05-09T20:54:05.005Z,100718.72
2023-05-09T20:56:33.210Z,100724.56
2023-05-09T20:59:01.008Z,100711.81
2023-05-09T21:01:27.520Z,100711.41
2023-05-09T21:03:54.023Z,100712.84
2023-05-09T21:06:20.438Z,100705.38
2023-05-09T21:08:46.956Z,100700.91
2023-05-09T21:11:13.777Z,100701.78
2023-05-09T21:13:40.244Z,100698.84
2023-05-09T21:16:06.686Z,100699.72
2023-05-09T21:18:33.105Z,100694.25
2023-05-09T21:21:05.298Z,100700.75
2023-05-09T21:23:31.984Z,100689.06
2023-05-09T21:25:58.394Z,100689.88
2023-05-09T21:28:25.458Z,100690.31
2023-05-09T21:30:53.051Z,100685.94
2023-05-09T21:33:20.219Z,100692.69
2023-05-09T21:35:46.922Z,100686.97
2023-05-09T21:38:13.801Z,100686.56
2023-05-09T21:40:41.160Z,100686.16
2023-05-09T21:43:07.615Z,100681.56
2023-05-09T21:45:34.101Z,100686.13
2023-05-09T21:48:00.822Z,100685.50
2023-05-09T21:50:27.345Z,100671.22
2023-05-09T21:52:56.091Z,100677.59
2023-05-09T21:55:22.750Z,100679.03
2023-05-09T21:57:49.170Z,100682.16
2023-05-09T22:00:16.831Z,100677.78
2023-05-09T22:02:43.798Z,100671.34
2023-05-09T22:05:11.522Z,100686.16
2023-05-09T22:07:38.401Z,100669.66
2023-05-09T22:10:05.457Z,100674.66
2023-05-09T22:12:31.989Z,100664.63
2023-05-09T22:14:58.441Z,100663.63
2023-05-09T22:17:25.094Z,100668.59
2023-05-09T22:19:52.004Z,100668.59
2023-05-09T22:22:19.069Z,100675.50
2023-05-09T22:24:45.549Z,100675.50
2023-05-09T22:27:12.032Z,100676.53
2023-05-09T22:29:38.520Z,100680.72
2023-05-09T22:32:07.661Z,100677.38
2023-05-09T22:34:35.933Z,100686.38
2023-05-09T22:37:02.528Z,100670.47
2023-05-09T22:39:29.743Z,100670.88
2023-05-09T22:41:56.577Z,100676.75
2023-05-09T22:44:23.078Z,100668.81
2023-05-09T22:46:49.529Z,100666.09
2023-05-09T22:49:15.943Z,100668.16
2023-05-09T22:51:42.366Z,100663.19
2023-05-09T22:54:09.064Z,100654.41
2023-05-09T22:56:35.510Z,100656.28
2023-05-09T22:59:02.015Z,100652.75
2023-05-09T23:01:28.577Z,100642.91
2023-05-09T23:03:55.043Z,100645.84
2023-05-09T23:06:21.564Z,100647.75
2023-05-09T23:08:48.016Z,100645.63
2023-05-09T23:11:14.485Z,100645.84
2023-05-09T23:13:40.946Z,100644.81
2023-05-09T23:16:07.394Z,100644.78
2023-05-09T23:18:33.927Z,100637.63
2023-05-09T23:21:00.385Z,100643.09
2023-05-09T23:23:27.120Z,100639.41
2023-05-09T23:25:53.573Z,100650.03
2023-05-09T23:28:25.137Z,100636.84
2023-05-09T23:30:52.337Z,100633.50
2023-05-09T23:33:18.793Z,100631.41
2023-05-09T23:35:45.250Z,100630.16
2023-05-09T23:38:11.733Z,100624.16
2023-05-09T23:40:38.481Z,100632.34
2023-05-09T23:43:05.044Z,100626.16
2023-05-09T23:45:31.685Z,100633.78
2023-05-09T23:47:58.160Z,100627.19
2023-05-09T23:50:24.659Z,100624.81
2023-05-09T23:52:51.241Z,100619.69
2023-05-09T23:55:18.035Z,100619.00
2023-05-09T23:57:44.538Z,100614.69
